createdAt,value
2022-08-21T00:00:25.124Z,42.70
2022-08-21T00:01:29.122Z,42.70
2022-08-21T00:02:31.433Z,42.70
2022-08-21T00:03:33.924Z,42.70
2022-08-21T00:04:37.637Z,42.60
2022-08-21T00:05:51.558Z,42.70
2022-08-21T00:06:53.952Z,42.70
2022-08-21T00:07:56.457Z,42.70
2022-08-21T00:09:00.837Z,42.70
2022-08-21T00:10:07.256Z,42.70
2022-08-21T00:11:09.953Z,42.70
2022-08-21T00:12:12.407Z,42.70
2022-08-21T00:13:16.245Z,42.60
2022-08-21T00:14:21.138Z,42.60
2022-08-21T00:15:24.665Z,42.60
2022-08-21T00:16:27.081Z,42.60
2022-08-21T00:17:29.310Z,42.80
2022-08-21T00:18:31.597Z,42.70
2022-08-21T00:19:33.848Z,42.70
2022-08-21T00:20:36.129Z,42.70
2022-08-21T00:21:38.403Z,42.70
2022-08-21T00:22:42.847Z,42.80
2022-08-21T00:23:45.220Z,42.90
2022-08-21T00:24:47.413Z,42.90
2022-08-21T00:25:49.986Z,43.00
2022-08-21T00:26:52.455Z,43.00
2022-08-21T00:27:55.675Z,43.00
2022-08-21T00:28:58.934Z,43.00
2022-08-21T00:30:01.284Z,43.00
2022-08-21T00:31:04.858Z,43.00
2022-08-21T00:32:07.087Z,43.00
2022-08-21T00:33:09.473Z,43.00
2022-08-21T00:34:12.164Z,43.00
2022-08-21T00:35:16.325Z,43.00
2022-08-21T00:36:18.635Z,43.00
2022-08-21T00:37:21.451Z,42.90
2022-08-21T00:38:23.792Z,42.90
2022-08-21T00:39:26.033Z,42.90
2022-08-21T00:40:37.443Z,43.00
2022-08-21T00:41:40.352Z,43.00
2022-08-21T00:42:42.602Z,42.90
2022-08-21T00:43:44.956Z,42.90
2022-08-21T00:44:48.098Z,43.00
2022-08-21T00:45:50.782Z,43.10
2022-08-21T00:46:53.525Z,43.00
2022-08-21T00:47:56.090Z,43.10
2022-08-21T00:48:59.397Z,43.20
2022-08-21T00:50:01.749Z,43.20
2022-08-21T00:51:06.722Z,43.20
2022-08-21T00:52:11.877Z,43.20
2022-08-21T00:53:14.534Z,43.20
2022-08-21T00:54:18.736Z,43.20
2022-08-21T00:55:23.600Z,43.30
2022-08-21T00:56:26.104Z,43.30
2022-08-21T00:57:30.851Z,43.30
2022-08-21T00:58:33.584Z,43.40
2022-08-21T00:59:37.781Z,43.40
2022-08-21T01:00:41.657Z,43.40
2022-08-21T01:01:43.951Z,43.40
2022-08-21T01:02:46.735Z,43.40
2022-08-21T01:03:49.117Z,43.30
2022-08-21T01:04:52.825Z,43.30
2022-08-21T01:05:55.427Z,43.40
2022-08-21T01:06:57.811Z,43.50
2022-08-21T01:08:00.133Z,43.50
2022-08-21T01:09:02.437Z,43.60
2022-08-21T01:10:05.861Z,43.50
2022-08-21T01:11:08.343Z,43.60
2022-08-21T01:12:10.817Z,43.60
2022-08-21T01:13:14.854Z,43.70
2022-08-21T01:14:19.371Z,43.60
2022-08-21T01:15:22.663Z,43.60
2022-08-21T01:16:24.954Z,43.70
2022-08-21T01:17:27.557Z,43.60
2022-08-21T01:18:29.958Z,43.70
2022-08-21T01:19:32.182Z,43.60
2022-08-21T01:20:35.318Z,43.70
2022-08-21T01:21:37.750Z,43.70
2022-08-21T01:22:40.061Z,43.70
2022-08-21T01:23:45.052Z,43.70
2022-08-21T01:24:47.308Z,43.80
2022-08-21T01:25:49.631Z,43.80
2022-08-21T01:26:52.092Z,43.80
2022-08-21T01:27:54.343Z,43.80
2022-08-21T01:29:05.887Z,43.90
2022-08-21T01:30:19.580Z,43.80
2022-08-21T01:31:24.845Z,43.90
2022-08-21T01:32:28.594Z,44.00
2022-08-21T01:33:30.952Z,44.10
2022-08-21T01:34:33.878Z,44.20
2022-08-21T01:35:36.234Z,44.10
2022-08-21T01:36:38.685Z,44.10
2022-08-21T01:37:41.112Z,44.10
2022-08-21T01:38:43.365Z,44.10
2022-08-21T01:39:46.122Z,44.10
2022-08-21T01:40:48.376Z,44.10
2022-08-21T01:41:50.746Z,44.10
2022-08-21T01:42:54.290Z,44.10
2022-08-21T01:43:56.539Z,44.10
2022-08-21T01:44:58.762Z,44.10
2022-08-21T01:46:00.990Z,44.20
2022-08-21T01:47:06.405Z,44.80
2022-08-21T01:48:08.742Z,44.20
2022-08-21T01:49:11.040Z,44.30
2022-08-21T01:50:14.456Z,44.40
2022-08-21T01:51:16.653Z,44.90
2022-08-21T01:52:19.265Z,44.40
2022-08-21T01:53:21.730Z,44.40
2022-08-21T01:54:35.569Z,44.40
2022-08-21T01:55:37.838Z,44.40
2022-08-21T01:56:41.144Z,44.40
2022-08-21T01:57:43.724Z,44.40
2022-08-21T01:58:47.206Z,44.40
2022-08-21T01:59:49.492Z,44.50
2022-08-21T02:00:51.878Z,44.50
2022-08-21T02:01:56.288Z,44.40
2022-08-21T02:02:59.233Z,44.40
2022-08-21T02:04:01.692Z,44.50
2022-08-21T02:05:05.075Z,44.40
2022-08-21T02:06:08.116Z,44.40
2022-08-21T02:07:10.451Z,44.50
2022-08-21T02:08:12.677Z,44.40
2022-08-21T02:09:15.101Z,44.40
2022-08-21T02:10:19.554Z,44.40
2022-08-21T02:11:21.851Z,44.40
2022-08-21T02:12:24.219Z,44.50
2022-08-21T02:13:27.161Z,44.50
2022-08-21T02:14:32.784Z,44.50
2022-08-21T02:15:35.506Z,44.60
2022-08-21T02:16:37.799Z,44.50
2022-08-21T02:17:42.617Z,44.60
2022-08-21T02:18:44.889Z,44.60
2022-08-21T02:19:47.092Z,44.70
2022-08-21T02:20:55.802Z,44.70
2022-08-21T02:21:58.549Z,44.70
2022-08-21T02:23:01.254Z,44.70
2022-08-21T02:24:04.153Z,44.80
2022-08-21T02:25:06.780Z,44.80
2022-08-21T02:26:09.412Z,44.80
2022-08-21T02:27:11.632Z,44.70
2022-08-21T02:28:15.454Z,44.70
2022-08-21T02:29:17.631Z,44.70
2022-08-21T02:30:27.445Z,44.70
2022-08-21T02:31:30.011Z,44.70
2022-08-21T02:32:32.269Z,44.70
2022-08-21T02:33:34.573Z,44.70
2022-08-21T02:34:36.770Z,44.80
2022-08-21T02:35:39.918Z,44.80
2022-08-21T02:36:42.332Z,44.80
2022-08-21T02:37:48.895Z,44.80
2022-08-21T02:38:51.076Z,44.80
2022-08-21T02:39:53.378Z,45.20
2022-08-21T02:40:56.217Z,44.80
2022-08-21T02:41:58.509Z,44.70
2022-08-21T02:43:02.864Z,44.70
2022-08-21T02:44:05.083Z,44.70
2022-08-21T02:45:08.304Z,44.70
2022-08-21T02:46:12.597Z,44.70
2022-08-21T02:47:15.088Z,44.70
2022-08-21T02:48:19.160Z,44.70
2022-08-21T02:49:21.347Z,44.80
2022-08-21T02:50:26.031Z,44.80
2022-08-21T02:51:29.560Z,44.80
2022-08-21T02:52:31.791Z,44.70
2022-08-21T02:53:35.223Z,44.70
2022-08-21T02:54:37.473Z,44.70
2022-08-21T02:55:39.698Z,44.70
2022-08-21T02:56:41.884Z,44.70
2022-08-21T02:57:44.311Z,44.60
2022-08-21T02:58:48.213Z,44.70
2022-08-21T02:59:50.412Z,44.70
2022-08-21T03:00:52.665Z,44.80
2022-08-21T03:01:55.080Z,44.80
2022-08-21T03:02:57.991Z,44.80
2022-08-21T03:04:00.482Z,44.80
2022-08-21T03:05:02.706Z,44.80
2022-08-21T03:06:05.282Z,44.80
2022-08-21T03:07:10.996Z,44.80
2022-08-21T03:08:14.406Z,45.30
2022-08-21T03:09:16.593Z,44.90
2022-08-21T03:10:20.552Z,44.90
2022-08-21T03:11:22.816Z,44.90
2022-08-21T03:12:25.118Z,45.00
2022-08-21T03:13:32.990Z,45.00
2022-08-21T03:14:35.185Z,45.00
2022-08-21T03:15:37.799Z,45.00
2022-08-21T03:16:40.346Z,45.00
2022-08-21T03:17:42.642Z,45.50
2022-08-21T03:18:44.979Z,45.00
2022-08-21T03:19:47.204Z,45.10
2022-08-21T03:20:49.662Z,45.10
2022-08-21T03:21:51.880Z,45.10
2022-08-21T03:22:54.535Z,45.20
2022-08-21T03:23:56.857Z,45.20
2022-08-21T03:24:59.622Z,45.20
2022-08-21T03:26:01.872Z,45.70
2022-08-21T03:27:04.739Z,45.20
2022-08-21T03:28:13.678Z,45.20
2022-08-21T03:29:16.136Z,45.30
2022-08-21T03:30:20.789Z,45.30
2022-08-21T03:31:22.962Z,45.30
2022-08-21T03:32:25.188Z,45.30
2022-08-21T03:33:28.541Z,45.30
2022-08-21T03:34:30.818Z,45.30
2022-08-21T03:35:33.338Z,45.30
2022-08-21T03:36:35.522Z,45.40
2022-08-21T03:37:37.718Z,45.40
2022-08-21T03:38:40.607Z,45.40
2022-08-21T03:39:42.997Z,45.50
2022-08-21T03:40:45.250Z,45.50
2022-08-21T03:41:48.265Z,45.50
2022-08-21T03:42:50.542Z,45.50
2022-08-21T03:43:52.897Z,45.50
2022-08-21T03:44:55.089Z,45.50
2022-08-21T03:45:57.382Z,45.60
2022-08-21T03:46:59.697Z,45.70
2022-08-21T03:48:04.427Z,45.60
2022-08-21T03:49:07.028Z,45.70
2022-08-21T03:50:09.482Z,45.70
2022-08-21T03:51:11.763Z,45.70
2022-08-21T03:52:13.983Z,45.70
2022-08-21T03:53:17.745Z,45.70
2022-08-21T03:54:20.185Z,45.70
2022-08-21T03:55:22.413Z,45.70
2022-08-21T03:56:24.842Z,45.80
2022-08-21T03:57:27.097Z,45.80
2022-08-21T03:58:29.542Z,45.80
2022-08-21T03:59:31.778Z,45.80
2022-08-21T04:00:34.267Z,46.20
2022-08-21T04:01:37.119Z,45.80
2022-08-21T04:02:39.833Z,45.90
2022-08-21T04:03:42.152Z,45.90
2022-08-21T04:04:44.366Z,45.90
2022-08-21T04:05:46.957Z,45.90
2022-08-21T04:06:50.699Z,45.90
2022-08-21T04:07:52.928Z,45.90
2022-08-21T04:08:55.941Z,46.00
2022-08-21T04:09:58.658Z,46.00
2022-08-21T04:11:01.276Z,46.00
2022-08-21T04:12:04.539Z,46.00
2022-08-21T04:13:07.478Z,46.00
2022-08-21T04:14:10.057Z,46.00
2022-08-21T04:15:14.092Z,45.90
2022-08-21T04:16:16.493Z,45.90
2022-08-21T04:17:19.080Z,45.90
2022-08-21T04:18:21.363Z,45.90
2022-08-21T04:19:24.293Z,45.90
2022-08-21T04:20:27.198Z,45.90
2022-08-21T04:21:30.142Z,45.90
2022-08-21T04:22:32.367Z,46.00
2022-08-21T04:23:35.161Z,46.00
2022-08-21T04:24:37.506Z,46.50
2022-08-21T04:25:39.890Z,46.00
2022-08-21T04:26:42.173Z,46.10
2022-08-21T04:27:44.623Z,46.10
2022-08-21T04:28:46.971Z,46.00
2022-08-21T04:29:50.055Z,46.50
2022-08-21T04:30:53.019Z,46.10
2022-08-21T04:31:55.595Z,46.00
2022-08-21T04:32:58.774Z,46.10
2022-08-21T04:34:01.292Z,46.10
2022-08-21T04:35:05.494Z,46.20
2022-08-21T04:36:08.050Z,46.10
2022-08-21T04:37:10.545Z,46.10
2022-08-21T04:38:12.859Z,46.10
2022-08-21T04:39:15.119Z,46.20
2022-08-21T04:40:19.048Z,46.10
2022-08-21T04:41:28.116Z,46.10
2022-08-21T04:42:30.635Z,46.10
2022-08-21T04:43:33.228Z,46.10
2022-08-21T04:44:35.729Z,46.20
2022-08-21T04:45:43.887Z,46.20
2022-08-21T04:46:46.110Z,46.20
2022-08-21T04:47:53.398Z,46.20
2022-08-21T04:48:55.948Z,46.20
2022-08-21T04:49:58.916Z,46.30
2022-08-21T04:51:03.810Z,46.70
2022-08-21T04:52:06.239Z,46.30
2022-08-21T04:53:11.484Z,46.20
2022-08-21T04:54:16.632Z,46.20
2022-08-21T04:55:19.252Z,46.20
2022-08-21T04:56:29.462Z,46.20
2022-08-21T04:57:36.458Z,46.30
2022-08-21T04:58:51.806Z,46.30
2022-08-21T04:59:54.059Z,46.40
2022-08-21T05:00:57.431Z,46.30
2022-08-21T05:02:00.738Z,46.40
2022-08-21T05:03:05.089Z,46.50
2022-08-21T05:04:09.069Z,46.50
2022-08-21T05:05:11.360Z,46.50
2022-08-21T05:06:15.080Z,46.50
2022-08-21T05:07:42.822Z,46.40
2022-08-21T05:08:44.470Z,46.40
2022-08-21T05:09:46.871Z,46.40
2022-08-21T05:10:49.073Z,46.40
2022-08-21T05:11:52.508Z,46.40
2022-08-21T05:12:55.107Z,46.40
2022-08-21T05:13:57.555Z,46.50
2022-08-21T05:14:59.800Z,46.60
2022-08-21T05:16:02.092Z,46.80
2022-08-21T05:17:05.271Z,46.70
2022-08-21T05:18:07.713Z,46.80
2022-08-21T05:19:10.550Z,46.90
2022-08-21T05:20:14.289Z,47.00
2022-08-21T05:21:16.511Z,47.00
2022-08-21T05:22:25.247Z,47.10
2022-08-21T05:23:27.528Z,47.10
2022-08-21T05:24:29.767Z,47.20
2022-08-21T05:25:32.046Z,47.10
2022-08-21T05:26:45.961Z,47.10
2022-08-21T05:27:48.906Z,47.10
2022-08-21T05:28:54.679Z,47.20
2022-08-21T05:29:57.642Z,47.20
2022-08-21T05:31:00.004Z,47.10
2022-08-21T05:32:02.358Z,47.10
2022-08-21T05:33:05.632Z,47.00
2022-08-21T05:34:07.889Z,47.00
2022-08-21T05:35:10.184Z,47.10
2022-08-21T05:36:12.843Z,47.60
2022-08-21T05:37:16.122Z,47.00
2022-08-21T05:38:19.293Z,46.90
2022-08-21T05:39:21.854Z,46.70
2022-08-21T05:40:25.129Z,46.70
2022-08-21T05:41:28.636Z,46.70
2022-08-21T05:42:31.811Z,46.70
2022-08-21T05:43:37.596Z,46.70
2022-08-21T05:44:40.487Z,46.70
2022-08-21T05:45:44.294Z,46.90
2022-08-21T05:46:50.271Z,47.00
2022-08-21T05:47:54.280Z,47.00
2022-08-21T05:48:56.662Z,47.00
2022-08-21T05:49:58.845Z,46.90
2022-08-21T05:51:05.754Z,46.90
2022-08-21T05:52:07.970Z,46.90
2022-08-21T05:53:10.736Z,46.90
2022-08-21T05:54:13.137Z,46.90
2022-08-21T05:55:15.472Z,46.80
2022-08-21T05:56:17.897Z,46.80
2022-08-21T05:57:20.713Z,46.70
2022-08-21T05:58:23.938Z,46.70
2022-08-21T05:59:26.424Z,46.80
2022-08-21T06:00:29.146Z,46.90
2022-08-21T06:01:31.703Z,47.00
2022-08-21T06:02:34.290Z,47.10
2022-08-21T06:03:38.992Z,47.00
2022-08-21T06:04:41.699Z,47.10
2022-08-21T06:05:44.561Z,47.20
2022-08-21T06:06:48.710Z,47.00
2022-08-21T06:07:51.843Z,47.10
2022-08-21T06:08:55.279Z,47.10
2022-08-21T06:10:07.971Z,47.10
2022-08-21T06:11:11.098Z,47.00
2022-08-21T06:12:14.383Z,47.00
2022-08-21T06:13:17.388Z,47.00
2022-08-21T06:14:20.791Z,46.90
2022-08-21T06:15:23.615Z,47.00
2022-08-21T06:16:26.589Z,47.10
2022-08-21T06:17:28.955Z,46.90
2022-08-21T06:18:31.296Z,46.80
2022-08-21T06:19:34.330Z,46.70
2022-08-21T06:20:37.354Z,46.70
2022-08-21T06:21:39.743Z,46.80
2022-08-21T06:22:42.203Z,46.80
2022-08-21T06:23:45.235Z,46.40
2022-08-21T06:24:48.171Z,46.30
2022-08-21T06:25:50.752Z,46.30
2022-08-21T06:26:53.797Z,46.50
2022-08-21T06:28:09.665Z,46.30
2022-08-21T06:29:13.570Z,46.30
2022-08-21T06:30:15.946Z,46.20
2022-08-21T06:31:19.761Z,46.30
2022-08-21T06:32:22.200Z,46.10
2022-08-21T06:33:27.199Z,45.90
2022-08-21T06:34:33.201Z,46.00
2022-08-21T06:35:36.236Z,45.90
2022-08-21T06:36:38.884Z,45.80
2022-08-21T06:37:41.133Z,45.70
2022-08-21T06:38:49.157Z,45.70
2022-08-21T06:39:53.859Z,45.70
2022-08-21T06:40:56.757Z,45.60
2022-08-21T06:42:01.085Z,45.50
2022-08-21T06:43:09.266Z,45.30
2022-08-21T06:44:11.947Z,45.40
2022-08-21T06:45:14.540Z,45.40
2022-08-21T06:46:16.977Z,45.20
2022-08-21T06:47:19.573Z,45.30
2022-08-21T06:48:22.126Z,45.40
2022-08-21T06:49:24.663Z,45.50
2022-08-21T06:50:29.319Z,45.60
2022-08-21T06:51:33.963Z,45.60
2022-08-21T06:52:37.249Z,45.60
2022-08-21T06:53:40.154Z,45.60
2022-08-21T06:54:43.359Z,45.80
2022-08-21T06:55:46.690Z,45.50
2022-08-21T06:56:49.840Z,44.70
2022-08-21T06:57:53.207Z,45.10
2022-08-21T06:58:56.186Z,45.30
2022-08-21T06:59:58.912Z,44.90
2022-08-21T07:01:02.277Z,45.20
2022-08-21T07:02:05.504Z,45.40
2022-08-21T07:03:08.509Z,45.30
2022-08-21T07:04:11.485Z,45.40
2022-08-21T07:05:18.534Z,45.40
2022-08-21T07:06:22.001Z,45.40
2022-08-21T07:07:24.636Z,45.40
2022-08-21T07:08:28.049Z,45.50
2022-08-21T07:09:31.059Z,45.70
2022-08-21T07:10:34.666Z,45.00
2022-08-21T07:11:42.431Z,45.10
2022-08-21T07:13:03.624Z,45.10
2022-08-21T07:14:07.460Z,45.10
2022-08-21T07:15:11.057Z,45.00
2022-08-21T07:16:13.904Z,45.10
2022-08-21T07:17:16.544Z,45.10
2022-08-21T07:18:19.257Z,45.00
2022-08-21T07:19:21.792Z,44.80
2022-08-21T07:20:24.392Z,45.00
2022-08-21T07:21:27.146Z,45.00
2022-08-21T07:22:29.788Z,45.10
2022-08-21T07:23:33.624Z,44.80
2022-08-21T07:24:36.815Z,44.80
2022-08-21T07:25:40.011Z,44.50
2022-08-21T07:26:43.475Z,44.60
2022-08-21T07:27:46.733Z,45.00
2022-08-21T07:28:50.860Z,44.80
2022-08-21T07:29:54.414Z,45.10
2022-08-21T07:30:58.980Z,45.20
2022-08-21T07:32:02.958Z,45.20
2022-08-21T07:33:05.780Z,45.20
2022-08-21T07:34:09.637Z,44.70
2022-08-21T07:35:13.238Z,44.80
2022-08-21T07:36:16.623Z,44.90
2022-08-21T07:37:20.198Z,44.80
2022-08-21T07:38:24.021Z,44.80
2022-08-21T07:39:26.872Z,44.70
2022-08-21T07:40:29.911Z,44.50
2022-08-21T07:41:33.273Z,44.40
2022-08-21T07:42:40.686Z,44.60
2022-08-21T07:43:45.156Z,44.70
2022-08-21T07:44:55.264Z,44.70
2022-08-21T07:46:02.990Z,44.60
2022-08-21T07:47:06.245Z,44.40
2022-08-21T07:48:09.629Z,44.50
2022-08-21T07:49:13.176Z,44.10
2022-08-21T07:50:16.578Z,44.00
2022-08-21T07:51:20.335Z,44.00
2022-08-21T07:52:31.845Z,44.10
2022-08-21T07:53:35.323Z,44.00
2022-08-21T07:54:38.248Z,43.40
2022-08-21T07:55:41.527Z,43.70
2022-08-21T07:56:45.252Z,43.20
2022-08-21T07:57:48.784Z,43.20
2022-08-21T07:58:55.335Z,43.30
2022-08-21T07:59:58.662Z,43.50
2022-08-21T08:01:01.994Z,43.50
2022-08-21T08:02:05.279Z,43.60
2022-08-21T08:03:08.459Z,43.50
2022-08-21T08:04:11.723Z,43.40
2022-08-21T08:05:15.087Z,43.60
2022-08-21T08:06:20.171Z,43.50
2022-08-21T08:07:23.601Z,43.60
2022-08-21T08:08:26.525Z,43.50
2022-08-21T08:09:29.583Z,43.50
2022-08-21T08:10:32.606Z,43.70
2022-08-21T08:11:44.386Z,43.70
2022-08-21T08:12:47.382Z,43.60
2022-08-21T08:13:51.239Z,43.40
2022-08-21T08:14:54.034Z,43.40
2022-08-21T08:15:56.793Z,43.40
2022-08-21T08:16:59.737Z,43.40
2022-08-21T08:18:02.392Z,43.50
2022-08-21T08:19:05.182Z,43.50
2022-08-21T08:20:08.929Z,43.50
2022-08-21T08:21:12.288Z,43.50
2022-08-21T08:22:20.418Z,43.50
2022-08-21T08:23:24.108Z,43.40
2022-08-21T08:24:26.966Z,43.30
2022-08-21T08:25:32.824Z,43.20
2022-08-21T08:26:39.898Z,43.10
2022-08-21T08:27:43.387Z,43.30
2022-08-21T08:28:48.910Z,43.30
2022-08-21T08:29:52.532Z,43.30
2022-08-21T08:30:55.676Z,43.20
2022-08-21T08:32:01.830Z,43.20
2022-08-21T08:33:07.737Z,43.20
2022-08-21T08:34:10.639Z,43.20
2022-08-21T08:35:27.300Z,43.10
2022-08-21T08:36:35.368Z,43.10
2022-08-21T08:37:40.753Z,43.10
2022-08-21T08:38:44.870Z,43.20
2022-08-21T08:39:47.865Z,43.10
2022-08-21T08:41:11.194Z,43.20
2022-08-21T08:42:33.686Z,43.20
2022-08-21T08:43:37.960Z,43.20
2022-08-21T08:44:44.589Z,43.20
2022-08-21T08:45:51.139Z,43.10
2022-08-21T08:46:54.314Z,43.20
2022-08-21T08:48:04.134Z,43.20
2022-08-21T08:49:09.205Z,43.20
2022-08-21T08:50:22.592Z,43.10
2022-08-21T08:51:29.307Z,43.10
2022-08-21T08:52:34.388Z,43.10
2022-08-21T08:53:43.712Z,43.10
2022-08-21T08:54:52.010Z,43.10
2022-08-21T08:55:54.561Z,43.60
2022-08-21T08:56:56.946Z,43.20
2022-08-21T08:57:59.375Z,43.20
2022-08-21T08:59:03.753Z,43.20
2022-08-21T09:00:11.704Z,43.20
2022-08-21T09:01:16.943Z,43.20
2022-08-21T09:02:19.608Z,43.10
2022-08-21T09:03:23.265Z,43.10
2022-08-21T09:04:26.935Z,43.20
2022-08-21T09:05:45.791Z,43.20
2022-08-21T09:06:56.958Z,43.20
2022-08-21T09:08:11.461Z,43.10
2022-08-21T09:09:34.114Z,43.10
2022-08-21T09:10:56.385Z,43.10
2022-08-21T09:12:12.939Z,43.10
2022-08-21T09:13:21.202Z,43.30
2022-08-21T09:14:27.502Z,43.20
2022-08-21T09:15:33.240Z,43.10
2022-08-21T09:16:38.512Z,43.20
2022-08-21T09:17:52.870Z,43.30
2022-08-21T09:19:05.229Z,43.30
2022-08-21T09:20:11.056Z,43.30
2022-08-21T09:21:25.921Z,43.30
2022-08-21T09:22:49.329Z,43.30
2022-08-21T09:24:15.739Z,43.20
2022-08-21T09:25:17.915Z,43.30
2022-08-21T09:26:21.611Z,43.20
2022-08-21T09:27:24.706Z,43.30
2022-08-21T09:28:27.779Z,43.20
2022-08-21T09:29:32.468Z,43.30
2022-08-21T09:30:34.899Z,43.90
2022-08-21T09:31:40.263Z,43.50
2022-08-21T09:32:42.856Z,43.60
2022-08-21T09:33:45.223Z,43.50
2022-08-21T09:34:59.882Z,43.40
2022-08-21T09:36:02.425Z,43.50
2022-08-21T09:37:05.101Z,43.40
2022-08-21T09:38:08.665Z,43.40
2022-08-21T09:39:12.272Z,43.40
2022-08-21T09:40:23.663Z,43.40
2022-08-21T09:41:32.085Z,43.50
2022-08-21T09:42:34.377Z,43.60
2022-08-21T09:43:37.758Z,43.60
2022-08-21T09:44:43.994Z,43.60
2022-08-21T09:45:47.008Z,43.50
2022-08-21T09:46:53.342Z,43.50
2022-08-21T09:47:55.670Z,43.50
2022-08-21T09:48:59.697Z,43.40
2022-08-21T09:50:10.056Z,43.40
2022-08-21T09:51:15.867Z,43.50
2022-08-21T09:52:22.810Z,43.70
2022-08-21T09:53:26.213Z,43.50
2022-08-21T09:54:34.049Z,43.30
2022-08-21T09:55:58.854Z,43.30
2022-08-21T09:57:24.398Z,43.10
2022-08-21T09:58:34.666Z,43.10
2022-08-21T09:59:38.206Z,43.20
2022-08-21T10:00:40.818Z,43.20
2022-08-21T10:01:45.392Z,43.20
2022-08-21T10:02:47.957Z,43.10
2022-08-21T10:04:06.349Z,43.10
2022-08-21T10:05:10.070Z,43.00
2022-08-21T10:06:21.743Z,42.90
2022-08-21T10:07:26.490Z,42.80
2022-08-21T10:08:30.174Z,42.80
2022-08-21T10:09:39.762Z,43.00
2022-08-21T10:10:44.989Z,43.10
2022-08-21T10:11:59.072Z,43.10
2022-08-21T10:13:24.663Z,43.20
2022-08-21T10:14:49.083Z,43.30
2022-08-21T10:16:26.098Z,43.40
2022-08-21T10:17:35.446Z,43.20
2022-08-21T10:18:43.397Z,43.10
2022-08-21T10:20:05.802Z,43.00
2022-08-21T10:21:23.194Z,43.10
2022-08-21T10:22:44.245Z,43.10
2022-08-21T10:24:05.949Z,43.10
2022-08-21T10:25:40.446Z,43.10
2022-08-21T10:27:13.826Z,43.00
2022-08-21T10:28:16.392Z,43.00
2022-08-21T10:29:33.720Z,43.00
2022-08-21T10:30:42.107Z,43.00
2022-08-21T10:31:56.472Z,42.90
2022-08-21T10:33:17.638Z,42.80
2022-08-21T10:34:32.748Z,42.90
2022-08-21T10:35:41.130Z,42.90
2022-08-21T10:36:46.447Z,43.00
2022-08-21T10:38:07.548Z,43.00
2022-08-21T10:39:26.670Z,43.00
2022-08-21T10:40:34.909Z,43.00
2022-08-21T10:41:37.085Z,43.00
2022-08-21T10:42:47.367Z,42.90
2022-08-21T10:44:10.573Z,42.90
2022-08-21T10:45:23.592Z,43.00
2022-08-21T10:46:38.031Z,43.00
2022-08-21T10:47:48.341Z,43.10
2022-08-21T10:48:50.991Z,43.00
2022-08-21T10:50:04.653Z,43.00
2022-08-21T10:51:29.122Z,43.00
2022-08-21T10:52:37.702Z,43.00
2022-08-21T10:53:48.759Z,43.00
2022-08-21T10:55:13.980Z,43.00
2022-08-21T10:56:19.357Z,43.00
2022-08-21T10:57:35.455Z,43.00
2022-08-21T10:58:51.595Z,43.00
2022-08-21T11:00:00.634Z,43.00
2022-08-21T11:01:11.090Z,43.00
2022-08-21T11:02:34.014Z,43.00
2022-08-21T11:03:36.633Z,42.90
2022-08-21T11:04:50.898Z,43.00
2022-08-21T11:05:59.253Z,43.00
2022-08-21T11:07:08.763Z,43.10
2022-08-21T11:08:23.704Z,43.00
2022-08-21T11:09:27.402Z,43.00
2022-08-21T11:10:34.879Z,43.10
2022-08-21T11:11:43.864Z,43.00
2022-08-21T11:12:53.084Z,43.00
2022-08-21T11:14:17.200Z,42.90
2022-08-21T11:15:29.589Z,42.90
2022-08-21T11:16:38.290Z,42.90
2022-08-21T11:17:45.901Z,42.90
2022-08-21T11:18:54.532Z,42.90
2022-08-21T11:20:04.085Z,42.80
2022-08-21T11:21:18.399Z,42.90
2022-08-21T11:22:35.395Z,42.80
2022-08-21T11:23:56.563Z,42.70
2022-08-21T11:25:04.267Z,42.80
2022-08-21T11:26:19.944Z,42.80
2022-08-21T11:27:25.471Z,42.80
2022-08-21T11:28:31.870Z,42.80
2022-08-21T11:29:39.436Z,42.70
2022-08-21T11:30:41.911Z,42.70
2022-08-21T11:31:47.272Z,42.70
2022-08-21T11:32:58.951Z,42.60
2022-08-21T11:34:10.128Z,42.60
2022-08-21T11:35:30.808Z,42.60
2022-08-21T11:36:39.057Z,42.70
2022-08-21T11:37:47.698Z,42.60
2022-08-21T11:38:58.213Z,42.70
2022-08-21T11:40:06.947Z,42.60
2022-08-21T11:41:19.050Z,42.60
2022-08-21T11:42:21.299Z,42.60
2022-08-21T11:43:46.245Z,42.70
2022-08-21T11:45:11.480Z,42.60
2022-08-21T11:46:29.251Z,42.60
2022-08-21T11:47:42.889Z,42.60
2022-08-21T11:49:03.578Z,42.60
2022-08-21T11:50:06.017Z,42.60
2022-08-21T11:51:37.720Z,42.60
2022-08-21T11:52:44.251Z,42.60
2022-08-21T11:54:08.837Z,42.50
2022-08-21T11:55:23.678Z,42.40
2022-08-21T11:56:29.446Z,42.40
2022-08-21T11:57:38.028Z,42.30
2022-08-21T11:58:42.553Z,42.30
2022-08-21T11:59:52.158Z,42.20
2022-08-21T12:01:00.003Z,42.30
2022-08-21T12:02:02.709Z,42.10
2022-08-21T12:03:14.211Z,42.30
2022-08-21T12:04:26.182Z,42.30
2022-08-21T12:05:28.615Z,42.10
2022-08-21T12:06:32.637Z,42.10
2022-08-21T12:07:37.111Z,42.20
2022-08-21T12:08:41.325Z,42.30
2022-08-21T12:09:55.445Z,42.20
2022-08-21T12:11:06.118Z,42.20
2022-08-21T12:12:12.750Z,42.30
2022-08-21T12:13:42.159Z,42.10
2022-08-21T12:14:46.788Z,42.10
2022-08-21T12:15:49.129Z,41.90
2022-08-21T12:16:52.057Z,41.80
2022-08-21T12:18:02.143Z,42.00
2022-08-21T12:19:11.724Z,42.00
2022-08-21T12:20:32.378Z,42.00
2022-08-21T12:21:35.430Z,41.90
2022-08-21T12:22:39.109Z,41.90
2022-08-21T12:23:45.884Z,42.00
2022-08-21T12:24:51.065Z,41.60
2022-08-21T12:26:18.578Z,41.90
2022-08-21T12:27:28.095Z,41.90
2022-08-21T12:28:31.913Z,41.90
2022-08-21T12:29:47.623Z,41.80
2022-08-21T12:30:53.860Z,41.80
2022-08-21T12:32:00.119Z,41.80
2022-08-21T12:33:07.037Z,41.80
2022-08-21T12:34:10.686Z,41.90
2022-08-21T12:35:24.668Z,41.90
2022-08-21T12:36:49.800Z,41.90
2022-08-21T12:38:10.295Z,41.90
2022-08-21T12:39:14.531Z,41.60
2022-08-21T12:40:23.035Z,41.80
2022-08-21T12:41:56.198Z,41.90
2022-08-21T12:43:03.072Z,42.40
2022-08-21T12:44:08.669Z,42.00
2022-08-21T12:45:19.499Z,41.90
2022-08-21T12:46:23.665Z,42.00
2022-08-21T12:47:31.844Z,42.10
2022-08-21T12:48:39.839Z,41.70
2022-08-21T12:49:50.213Z,41.80
2022-08-21T12:50:54.766Z,41.80
2022-08-21T12:52:17.873Z,41.60
2022-08-21T12:53:20.887Z,41.80
2022-08-21T12:54:39.310Z,41.90
2022-08-21T12:55:42.909Z,41.80
2022-08-21T12:56:56.363Z,41.10
2022-08-21T12:57:58.631Z,41.70
2022-08-21T12:59:06.262Z,41.70
2022-08-21T13:00:12.993Z,41.70
2022-08-21T13:01:37.086Z,41.60
2022-08-21T13:02:47.053Z,41.70
2022-08-21T13:04:04.466Z,41.40
2022-08-21T13:05:08.625Z,41.50
2022-08-21T13:06:17.314Z,40.80
2022-08-21T13:07:31.077Z,40.50
2022-08-21T13:08:40.084Z,41.00
2022-08-21T13:09:54.771Z,41.40
2022-08-21T13:11:15.332Z,41.60
2022-08-21T13:12:19.384Z,41.50
2022-08-21T13:13:28.137Z,41.60
2022-08-21T13:14:45.940Z,41.50
2022-08-21T13:15:48.899Z,41.30
2022-08-21T13:16:57.726Z,41.50
2022-08-21T13:18:03.293Z,41.60
2022-08-21T13:19:08.266Z,41.30
2022-08-21T13:20:21.068Z,41.50
2022-08-21T13:21:27.974Z,41.50
2022-08-21T13:22:33.965Z,41.40
2022-08-21T13:23:37.587Z,41.70
2022-08-21T13:24:43.385Z,41.60
2022-08-21T13:25:46.060Z,41.10
2022-08-21T13:26:48.998Z,41.40
2022-08-21T13:28:02.207Z,41.70
2022-08-21T13:29:08.619Z,41.10
2022-08-21T13:30:11.209Z,41.30
2022-08-21T13:31:17.617Z,41.10
2022-08-21T13:32:22.782Z,41.20
2022-08-21T13:33:34.773Z,40.80
2022-08-21T13:34:39.909Z,40.40
2022-08-21T13:35:49.969Z,41.10
2022-08-21T13:36:53.362Z,41.10
2022-08-21T13:37:56.349Z,41.10
2022-08-21T13:38:58.686Z,41.00
2022-08-21T13:40:00.912Z,40.60
2022-08-21T13:41:05.642Z,40.80
2022-08-21T13:42:11.748Z,40.80
2022-08-21T13:43:15.179Z,41.20
2022-08-21T13:44:27.300Z,41.30
2022-08-21T13:45:32.390Z,41.40
2022-08-21T13:46:36.671Z,41.40
2022-08-21T13:47:39.184Z,41.30
2022-08-21T13:48:42.991Z,41.40
2022-08-21T13:49:47.166Z,41.30
2022-08-21T13:50:49.982Z,41.20
2022-08-21T13:51:53.044Z,41.20
2022-08-21T13:52:58.012Z,41.10
2022-08-21T13:54:00.546Z,41.20
2022-08-21T13:55:11.092Z,41.20
2022-08-21T13:56:23.406Z,41.00
2022-08-21T13:57:29.884Z,41.00
2022-08-21T13:58:43.380Z,41.00
2022-08-21T13:59:45.696Z,41.00
2022-08-21T14:00:49.727Z,41.10
2022-08-21T14:02:09.032Z,40.70
2022-08-21T14:03:11.848Z,40.60
2022-08-21T14:04:20.380Z,40.90
2022-08-21T14:05:26.267Z,41.10
2022-08-21T14:06:29.095Z,40.40
2022-08-21T14:07:40.161Z,40.50
2022-08-21T14:08:43.849Z,40.70